Riverdance — C6CG3 — position and weather

sailwx.info

Track history (hours):
 
Tides and Currents Weather Stations Pressure Air Temp Water Temp Dewpoint Dewpoint Depression Visibility Wind Speed Wind Dir Waves Ship Positions

Riverdance

Operator: Crescent Marine Services Ltd

Last reported at 2018-Aug-14 20:58 UTC. Time now 2018-Aug-14 21:09 UTC.
Position N 52°35' E 002°45'.

Length 72 m; draft 5.8 m.

Type: Other ship. MMSI: 311000463.

Date/timePositionNaut miles runAvg speedWind from/ knotsBaromVisibWave heightAir tempDewpointWater temp
2018-Aug-14 20:58N 52°35' E 002°45'1 2.8
2018-Aug-14 20:29N 52°37' E 002°46'2 4.0
2018-Aug-14 19:58N 52°38' E 002°48'2 3.6
2018-Aug-14 19:30N 52°39' E 002°50'2 3.0
2018-Aug-14 18:58N 52°38' E 002°48'2 4.4
2018-Aug-14 18:25N 52°37' E 002°46'1 2.1
2018-Aug-14 17:59N 52°37' E 002°44'1 1.1
2018-Aug-14 16:56N 52°37' E 002°46'1 3.3
2018-Aug-14 16:30N 52°38' E 002°48'1 1.0
2018-Aug-14 15:18N 52°36' E 002°47'1 3.9
2018-Aug-14 14:55N 52°38' E 002°45'0 0.1
2018-Aug-14 09:49N 52°37' E 002°46'2 0.7
2018-Aug-14 07:05N 52°36' E 002°48'1 3.8
2018-Aug-14 06:56N 52°36' E 002°49'1 0.3
2018-Aug-14 04:42N 52°36' E 002°48'2 4.2
2018-Aug-14 04:14N 52°36' E 002°45'1 3.0
2018-Aug-14 03:48N 52°37' E 002°44'1 2.8
2018-Aug-14 03:16N 52°39' E 002°44'3 2.1
2018-Aug-14 01:34N 52°36' E 002°48'1 3.9
2018-Aug-14 01:26N 52°37' E 002°47'2 0.0
2018-Aug-12 14:41N 52°37' E 002°45'1 3.8
2018-Aug-12 14:30N 52°38' E 002°44'1 2.6
2018-Aug-12 14:00N 52°38' E 002°46'2 4.1
2018-Aug-12 13:27N 52°36' E 002°49'1 2.0
2018-Aug-12 12:43N 52°37' E 002°47'  
2018-Aug-09 01:26N 56°53' W 001°40'5 9.5
2018-Aug-09 00:55N 56°57' W 001°45'4 9.8
2018-Aug-09 00:30N 57°01' W 001°49'510.0
2018-Aug-09 00:00N 57°05' W 001°54'5 9.9
2018-Aug-08 23:30N 57°08' W 002°00'2 5.0
2018-Aug-08 23:00N 57°09' W 002°05'0 0.0
2018-Aug-08 22:31N 57°09' W 002°05'0 0.0
2018-Aug-08 21:58N 57°09' W 002°05'0 0.0
2018-Aug-08 21:28N 57°09' W 002°05'0 0.0
2018-Aug-08 20:58N 57°09' W 002°05'0 0.0
2018-Aug-08 20:28N 57°09' W 002°05'0 0.0
2018-Aug-08 19:58N 57°09' W 002°05'0 0.0
2018-Aug-08 19:28N 57°09' W 002°05'0 0.0
2018-Aug-08 18:58N 57°09' W 002°05'0 0.0
2018-Aug-08 18:28N 57°09' W 002°05'0 0.0
2018-Aug-08 17:58N 57°09' W 002°05'0 0.0
2018-Aug-08 17:28N 57°09' W 002°05'0 0.0
2018-Aug-08 17:01N 57°09' W 002°05'0 0.0
2018-Aug-08 16:28N 57°09' W 002°05'0 0.0
2018-Aug-08 15:58N 57°09' W 002°05'0 0.0
2018-Aug-08 15:28N 57°09' W 002°05'0 0.0
2018-Aug-08 14:58N 57°09' W 002°05'0 0.0
2018-Aug-08 14:28N 57°09' W 002°05'0 0.0
2018-Aug-08 13:58N 57°09' W 002°05'0 0.0
2018-Aug-08 13:28N 57°09' W 002°05'0 0.0
2018-Aug-08 12:58N 57°09' W 002°05'0 0.0
2018-Aug-08 12:28N 57°09' W 002°05'0 0.0
2018-Aug-08 11:52N 57°09' W 002°05'0 0.0
2018-Aug-08 11:28N 57°09' W 002°05'0 0.0
2018-Aug-08 11:01N 57°09' W 002°05'0 0.0
2018-Aug-08 10:31N 57°09' W 002°05'0 0.0
2018-Aug-08 09:58N 57°09' W 002°05'0 0.0
2018-Aug-08 09:31N 57°09' W 002°05'0 0.0
2018-Aug-08 08:58N 57°09' W 002°05'0 0.0
2018-Aug-08 08:28N 57°09' W 002°05'0 0.0
2018-Aug-08 08:01N 57°09' W 002°05'0 0.0
2018-Aug-08 07:28N 57°09' W 002°05'0 0.0
2018-Aug-08 06:58N 57°09' W 002°05'0 0.0
2018-Aug-08 06:28N 57°09' W 002°05'0 0.0
2018-Aug-08 05:58N 57°09' W 002°05'0 0.0
2018-Aug-08 05:28N 57°09' W 002°05'0 0.0
2018-Aug-08 05:01N 57°09' W 002°05'0 0.0
2018-Aug-08 04:31N 57°09' W 002°05'0 0.0
2018-Aug-08 03:58N 57°09' W 002°05'0 0.0
2018-Aug-08 03:28N 57°09' W 002°05'0 0.0
2018-Aug-08 02:58N 57°09' W 002°05'0 0.0
2018-Aug-08 02:25N 57°09' W 002°05'0 0.0
2018-Aug-08 02:01N 57°09' W 002°05'0 0.0
2018-Aug-08 01:31N 57°09' W 002°05'0 0.0
2018-Aug-08 00:58N 57°09' W 002°05'0 0.0
2018-Aug-08 00:31N 57°09' W 002°05'0 0.0
2018-Aug-07 23:58N 57°09' W 002°05'0 0.0
2018-Aug-07 23:28N 57°09' W 002°05'0 0.0
2018-Aug-07 22:58N 57°09' W 002°05'0 0.0
2018-Aug-07 22:28N 57°09' W 002°05'0 0.0
2018-Aug-07 22:01N 57°09' W 002°05'0 0.0
2018-Aug-07 21:28N 57°09' W 002°05'0 0.0
2018-Aug-07 20:58N 57°09' W 002°05'0 0.0
2018-Aug-07 20:28N 57°09' W 002°05'0 0.0
2018-Aug-07 19:58N 57°09' W 002°05'0 0.0
2018-Aug-07 19:28N 57°09' W 002°05'0 0.0
2018-Aug-07 19:01N 57°09' W 002°05'0 0.0
2018-Aug-07 18:28N 57°09' W 002°05'0 0.0
2018-Aug-07 18:01N 57°09' W 002°05'0 0.0
2018-Aug-07 17:28N 57°09' W 002°05'0 0.0
2018-Aug-07 16:58N 57°09' W 002°05'0 0.0
2018-Aug-07 16:28N 57°09' W 002°05'0 0.0
2018-Aug-07 15:58N 57°09' W 002°05'0 0.0
2018-Aug-07 15:28N 57°09' W 002°05'0 0.0
2018-Aug-07 15:01N 57°09' W 002°05'0 0.0
2018-Aug-07 14:28N 57°09' W 002°05'0 0.0
2018-Aug-07 13:58N 57°09' W 002°05'0 0.0
2018-Aug-07 13:28N 57°09' W 002°05'0 0.0
2018-Aug-07 12:58N 57°09' W 002°05'0 0.0
2018-Aug-07 12:31N 57°09' W 002°05'0 0.0
2018-Aug-07 11:58N 57°09' W 002°05'0 0.0
2018-Aug-07 11:28N 57°09' W 002°05'0 0.0
2018-Aug-07 10:58N 57°09' W 002°05'0 0.0
2018-Aug-07 10:28N 57°09' W 002°05'0 0.0
2018-Aug-07 09:58N 57°09' W 002°05'0 0.0
2018-Aug-07 09:30N 57°09' W 002°05'2 3.9
2018-Aug-07 09:00N 57°09' W 002°01'3 6.0
2018-Aug-07 08:30N 57°11' W 001°57'4 8.5
2018-Aug-07 08:00N 57°15' W 001°52'4 8.3
2018-Aug-07 07:30N 57°18' W 001°48'8 9.2
2018-Aug-07 06:37N 57°24' W 001°39'1 9.1
2018-Aug-07 06:30N 57°25' W 001°37'5 9.7
2018-Aug-07 06:00N 57°29' W 001°32'5 9.3
2018-Aug-07 05:28N 57°34' W 001°30'  
Track history (hours):
 
Tides and Currents Weather Stations Pressure Air Temp Water Temp Dewpoint Dewpoint Depression Visibility Wind Speed Wind Dir Waves Ship Positions

Riverdance

Operator: Crescent Marine Services Ltd

Last reported at 2018-Aug-14 20:58 UTC. Time now 2018-Aug-14 21:09 UTC.
Position N 52°35' E 002°45'.

Length 72 m; draft 5.8 m.

Type: Other ship. MMSI: 311000463.

Date/timePositionNaut miles runAvg speedWind from/ knotsBaromVisibWave heightAir tempDewpointWater temp
2018-Aug-14 20:58N 52°35' E 002°45'1 2.8
2018-Aug-14 20:29N 52°37' E 002°46'2 4.0
2018-Aug-14 19:58N 52°38' E 002°48'2 3.6
2018-Aug-14 19:30N 52°39' E 002°50'2 3.0
2018-Aug-14 18:58N 52°38' E 002°48'2 4.4
2018-Aug-14 18:25N 52°37' E 002°46'1 2.1
2018-Aug-14 17:59N 52°37' E 002°44'1 1.1
2018-Aug-14 16:56N 52°37' E 002°46'1 3.3
2018-Aug-14 16:30N 52°38' E 002°48'1 1.0
2018-Aug-14 15:18N 52°36' E 002°47'1 3.9
2018-Aug-14 14:55N 52°38' E 002°45'0 0.1
2018-Aug-14 09:49N 52°37' E 002°46'2 0.7
2018-Aug-14 07:05N 52°36' E 002°48'1 3.8
2018-Aug-14 06:56N 52°36' E 002°49'1 0.3
2018-Aug-14 04:42N 52°36' E 002°48'2 4.2
2018-Aug-14 04:14N 52°36' E 002°45'1 3.0
2018-Aug-14 03:48N 52°37' E 002°44'1 2.8
2018-Aug-14 03:16N 52°39' E 002°44'3 2.1
2018-Aug-14 01:34N 52°36' E 002°48'1 3.9
2018-Aug-14 01:26N 52°37' E 002°47'2 0.0
2018-Aug-12 14:41N 52°37' E 002°45'1 3.8
2018-Aug-12 14:30N 52°38' E 002°44'1 2.6
2018-Aug-12 14:00N 52°38' E 002°46'2 4.1
2018-Aug-12 13:27N 52°36' E 002°49'1 2.0
2018-Aug-12 12:43N 52°37' E 002°47'  
2018-Aug-09 01:26N 56°53' W 001°40'5 9.5
2018-Aug-09 00:55N 56°57' W 001°45'4 9.8
2018-Aug-09 00:30N 57°01' W 001°49'510.0
2018-Aug-09 00:00N 57°05' W 001°54'5 9.9
2018-Aug-08 23:30N 57°08' W 002°00'2 5.0
2018-Aug-08 23:00N 57°09' W 002°05'0 0.0
2018-Aug-08 22:31N 57°09' W 002°05'0 0.0
2018-Aug-08 21:58N 57°09' W 002°05'0 0.0
2018-Aug-08 21:28N 57°09' W 002°05'0 0.0
2018-Aug-08 20:58N 57°09' W 002°05'0 0.0
2018-Aug-08 20:28N 57°09' W 002°05'0 0.0
2018-Aug-08 19:58N 57°09' W 002°05'0 0.0
2018-Aug-08 19:28N 57°09' W 002°05'0 0.0
2018-Aug-08 18:58N 57°09' W 002°05'0 0.0
2018-Aug-08 18:28N 57°09' W 002°05'0 0.0
2018-Aug-08 17:58N 57°09' W 002°05'0 0.0
2018-Aug-08 17:28N 57°09' W 002°05'0 0.0
2018-Aug-08 17:01N 57°09' W 002°05'0 0.0
2018-Aug-08 16:28N 57°09' W 002°05'0 0.0
2018-Aug-08 15:58N 57°09' W 002°05'0 0.0
2018-Aug-08 15:28N 57°09' W 002°05'0 0.0
2018-Aug-08 14:58N 57°09' W 002°05'0 0.0
2018-Aug-08 14:28N 57°09' W 002°05'0 0.0
2018-Aug-08 13:58N 57°09' W 002°05'0 0.0
2018-Aug-08 13:28N 57°09' W 002°05'0 0.0
2018-Aug-08 12:58N 57°09' W 002°05'0 0.0
2018-Aug-08 12:28N 57°09' W 002°05'0 0.0
2018-Aug-08 11:52N 57°09' W 002°05'0 0.0
2018-Aug-08 11:28N 57°09' W 002°05'0 0.0
2018-Aug-08 11:01N 57°09' W 002°05'0 0.0
2018-Aug-08 10:31N 57°09' W 002°05'0 0.0
2018-Aug-08 09:58N 57°09' W 002°05'0 0.0
2018-Aug-08 09:31N 57°09' W 002°05'0 0.0
2018-Aug-08 08:58N 57°09' W 002°05'0 0.0
2018-Aug-08 08:28N 57°09' W 002°05'0 0.0
2018-Aug-08 08:01N 57°09' W 002°05'0 0.0
2018-Aug-08 07:28N 57°09' W 002°05'0 0.0
2018-Aug-08 06:58N 57°09' W 002°05'0 0.0
2018-Aug-08 06:28N 57°09' W 002°05'0 0.0
2018-Aug-08 05:58N 57°09' W 002°05'0 0.0
2018-Aug-08 05:28N 57°09' W 002°05'0 0.0
2018-Aug-08 05:01N 57°09' W 002°05'0 0.0
2018-Aug-08 04:31N 57°09' W 002°05'0 0.0
2018-Aug-08 03:58N 57°09' W 002°05'0 0.0
2018-Aug-08 03:28N 57°09' W 002°05'0 0.0
2018-Aug-08 02:58N 57°09' W 002°05'0 0.0
2018-Aug-08 02:25N 57°09' W 002°05'0 0.0
2018-Aug-08 02:01N 57°09' W 002°05'0 0.0
2018-Aug-08 01:31N 57°09' W 002°05'0 0.0
2018-Aug-08 00:58N 57°09' W 002°05'0 0.0
2018-Aug-08 00:31N 57°09' W 002°05'0 0.0
2018-Aug-07 23:58N 57°09' W 002°05'0 0.0
2018-Aug-07 23:28N 57°09' W 002°05'0 0.0
2018-Aug-07 22:58N 57°09' W 002°05'0 0.0
2018-Aug-07 22:28N 57°09' W 002°05'0 0.0
2018-Aug-07 22:01N 57°09' W 002°05'0 0.0
2018-Aug-07 21:28N 57°09' W 002°05'0 0.0
2018-Aug-07 20:58N 57°09' W 002°05'0 0.0
2018-Aug-07 20:28N 57°09' W 002°05'0 0.0
2018-Aug-07 19:58N 57°09' W 002°05'0 0.0
2018-Aug-07 19:28N 57°09' W 002°05'0 0.0
2018-Aug-07 19:01N 57°09' W 002°05'0 0.0
2018-Aug-07 18:28N 57°09' W 002°05'0 0.0
2018-Aug-07 18:01N 57°09' W 002°05'0 0.0
2018-Aug-07 17:28N 57°09' W 002°05'0 0.0
2018-Aug-07 16:58N 57°09' W 002°05'0 0.0
2018-Aug-07 16:28N 57°09' W 002°05'0 0.0
2018-Aug-07 15:58N 57°09' W 002°05'0 0.0
2018-Aug-07 15:28N 57°09' W 002°05'0 0.0
2018-Aug-07 15:01N 57°09' W 002°05'0 0.0
2018-Aug-07 14:28N 57°09' W 002°05'0 0.0
2018-Aug-07 13:58N 57°09' W 002°05'0 0.0
2018-Aug-07 13:28N 57°09' W 002°05'0 0.0
2018-Aug-07 12:58N 57°09' W 002°05'0 0.0
2018-Aug-07 12:31N 57°09' W 002°05'0 0.0
2018-Aug-07 11:58N 57°09' W 002°05'0 0.0
2018-Aug-07 11:28N 57°09' W 002°05'0 0.0
2018-Aug-07 10:58N 57°09' W 002°05'0 0.0
2018-Aug-07 10:28N 57°09' W 002°05'0 0.0
2018-Aug-07 09:58N 57°09' W 002°05'0 0.0
2018-Aug-07 09:30N 57°09' W 002°05'2 3.9
2018-Aug-07 09:00N 57°09' W 002°01'3 6.0
2018-Aug-07 08:30N 57°11' W 001°57'4 8.5
2018-Aug-07 08:00N 57°15' W 001°52'4 8.3
2018-Aug-07 07:30N 57°18' W 001°48'8 9.2
2018-Aug-07 06:37N 57°24' W 001°39'1 9.1
2018-Aug-07 06:30N 57°25' W 001°37'5 9.7
2018-Aug-07 06:00N 57°29' W 001°32'5 9.3
2018-Aug-07 05:28N 57°34' W 001°30'  

Dump ship's entire track history